Time;durP1;ratioP1;P1;durP2;ratioP2;P2;SDS_P1;SDS_P2;PMS_P1;PMS_P2;Temp;Humidity;BMP_temperature;BMP_pressure;BME280_temperature;BME280_humidity;BME280_pressure;Samples;Min_cycle;Max_cycle;Signal;HPM_P1;HPM_P2
2023/05/11 00:04:34;;;;;;;7.57;1.05;;;;;;;14.15;72.54;100088.34;10426157;28;20069;-59
2023/05/11 00:09:37;;;;;;;1.73;1.00;;;;;;;14.05;73.07;100092.28;10422186;28;20304;-58
2023/05/11 00:14:39;;;;;;;1.85;1.00;;;;;;;14.14;72.79;100094.78;10428605;28;20114;-59
2023/05/11 00:19:40;;;;;;;1.10;0.80;;;;;;;14.18;72.57;100087.91;10421075;28;20115;-58
2023/05/11 00:24:41;;;;;;;5.82;1.02;;;;;;;14.14;72.61;100083.97;10427325;28;20052;-59
2023/05/11 00:29:43;;;;;;;2.10;0.90;;;;;;;14.13;72.60;100087.72;10424630;28;20433;-59
2023/05/11 00:34:44;;;;;;;2.22;0.82;;;;;;;14.15;72.47;100096.47;10423725;28;20500;-58
2023/05/11 00:39:46;;;;;;;1.25;0.70;;;;;;;14.14;72.35;100086.69;10419933;28;20521;-59
2023/05/11 00:44:47;;;;;;;1.13;0.63;;;;;;;14.09;72.45;100077.31;10420069;28;20079;-59
2023/05/11 00:49:51;;;;;;;5.95;0.70;;;;;;;14.05;72.34;100075.25;10423564;28;20515;-58
2023/05/11 00:54:52;;;;;;;2.17;0.80;;;;;;;13.99;72.08;100073.38;10423107;28;20349;-59
2023/05/11 00:59:54;;;;;;;4.75;1.02;;;;;;;13.98;72.19;100072.53;10419322;28;20480;-59
2023/05/11 01:04:56;;;;;;;4.15;0.93;;;;;;;13.97;72.27;100070.84;10420595;28;20051;-58
2023/05/11 01:10:20;;;;;;;1.98;0.88;;;;;;;13.89;72.22;100071.88;10421839;28;20053;-59
2023/05/11 01:15:35;;;;;;;4.20;1.05;;;;;;;13.87;72.26;100063.16;10426774;28;20468;-59
2023/05/11 01:20:38;;;;;;;1.10;0.70;;;;;;;13.85;72.23;100076.03;10417282;28;20057;-59
2023/05/11 01:26:01;;;;;;;3.45;0.80;;;;;;;13.82;72.25;100070.19;10422026;28;20138;-59
2023/05/11 01:31:14;;;;;;;4.03;0.95;;;;;;;13.80;72.46;100072.28;10419985;28;20133;-60
2023/05/11 01:36:18;;;;;;;4.70;1.38;;;;;;;13.79;72.51;100070.63;10423221;28;20110;-60
2023/05/11 01:41:22;;;;;;;0.90;0.80;;;;;;;13.79;72.49;100071.44;10420658;28;20151;-59
2023/05/11 01:46:27;;;;;;;1.33;0.93;;;;;;;13.74;72.13;100076.63;10419994;28;20542;-59
2023/05/11 01:51:33;;;;;;;4.32;0.93;;;;;;;13.69;72.33;100077.22;10409166;28;20049;-59
2023/05/11 01:56:37;;;;;;;0.85;0.75;;;;;;;13.65;72.58;100075.16;10418308;28;20099;-59
2023/05/11 02:01:40;;;;;;;4.25;0.88;;;;;;;13.58;72.20;100082.38;10418304;28;20452;-59
2023/05/11 02:06:42;;;;;;;2.08;0.60;;;;;;;13.53;72.52;100079.47;10426154;28;20482;-58
2023/05/11 02:11:47;;;;;;;4.93;0.60;;;;;;;13.43;72.64;100087.97;10418520;28;20076;-60
2023/05/11 02:16:49;;;;;;;5.28;0.80;;;;;;;13.41;72.72;100087.31;10418054;28;20459;-59
2023/05/11 02:21:52;;;;;;;1.63;0.73;;;;;;;13.41;72.40;100087.31;10416502;28;20068;-58
2023/05/11 02:26:53;;;;;;;2.08;0.88;;;;;;;13.42;72.46;100091.66;10420000;28;20073;-58
2023/05/11 02:32:23;;;;;;;4.25;0.80;;;;;;;13.38;72.62;100088.53;10419550;28;20080;-59
2023/05/11 02:37:26;;;;;;;3.03;0.82;;;;;;;13.38;72.91;100098.50;10412009;28;20060;-59
2023/05/11 02:42:33;;;;;;;5.70;1.00;;;;;;;13.31;72.67;100095.78;10416006;28;20045;-60
2023/05/11 02:47:38;;;;;;;;;;;;;;;13.34;72.60;100086.44;10421872;28;20132;-58
2023/05/11 02:52:43;;;;;;;6.13;1.15;;;;;;;13.35;72.65;100096.19;10421346;28;20009;-59
2023/05/11 02:57:45;;;;;;;5.90;1.23;;;;;;;13.25;72.95;100093.84;10419689;28;21187;-58
2023/05/11 03:02:47;;;;;;;3.08;0.93;;;;;;;13.26;73.11;100093.63;10415530;28;20053;-59
2023/05/11 03:07:48;;;;;;;10.18;0.90;;;;;;;13.27;73.00;100083.69;10421281;28;20667;-58
2023/05/11 03:12:50;;;;;;;2.40;0.98;;;;;;;13.31;73.13;100086.84;10414473;28;20087;-59
2023/05/11 03:17:52;;;;;;;1.27;0.88;;;;;;;13.29;73.20;100081.63;10418085;28;20092;-58
2023/05/11 03:22:54;;;;;;;2.20;1.35;;;;;;;13.31;72.77;100086.84;10420211;28;20144;-59
2023/05/11 03:27:57;;;;;;;5.93;1.17;;;;;;;13.28;72.71;100086.19;10422751;28;20620;-57
2023/05/11 03:32:59;;;;;;;6.05;0.77;;;;;;;13.25;72.76;100092.00;10429969;28;20157;-58
2023/05/11 03:38:02;;;;;;;3.45;1.08;;;;;;;13.25;72.76;100088.44;10424817;28;20720;-59
2023/05/11 03:43:04;;;;;;;1.83;1.08;;;;;;;13.23;72.83;100093.19;10424736;28;20073;-62
2023/05/11 03:48:07;;;;;;;3.97;1.17;;;;;;;13.26;72.80;100090.94;10422803;28;20077;-60
2023/05/11 03:53:09;;;;;;;2.50;1.27;;;;;;;13.29;72.86;100095.97;10428565;28;20599;-60
2023/05/11 03:58:11;;;;;;;3.42;1.17;;;;;;;13.34;72.74;100089.97;10419841;28;20080;-59
2023/05/11 04:03:12;;;;;;;4.88;1.30;;;;;;;13.40;73.04;100088.34;10425654;28;20118;-60
2023/05/11 04:08:14;;;;;;;6.03;1.65;;;;;;;13.41;72.90;100095.41;10427465;28;20389;-60
2023/05/11 04:13:15;;;;;;;1.83;1.65;;;;;;;13.53;72.66;100088.41;10424329;28;20112;-61
2023/05/11 04:18:16;;;;;;;8.10;1.90;;;;;;;13.61;72.68;100099.03;10419949;28;20124;-59
2023/05/11 04:23:18;;;;;;;4.15;1.65;;;;;;;13.63;72.74;100094.25;10420597;28;20038;-60
2023/05/11 04:28:21;;;;;;;2.97;1.10;;;;;;;13.68;72.65;100096.34;10426677;28;20053;-60
2023/05/11 04:33:22;;;;;;;4.30;1.30;;;;;;;13.68;72.64;100094.50;10411358;28;20080;-62
2023/05/11 04:38:24;;;;;;;3.30;1.98;;;;;;;13.73;72.54;100093.03;10421983;28;20045;-69
2023/05/11 04:43:25;;;;;;;5.60;1.48;;;;;;;13.75;72.80;100099.91;10427123;28;20049;-69
2023/05/11 04:48:27;;;;;;;3.63;1.73;;;;;;;13.77;72.66;100105.13;10420641;28;20080;-69
2023/05/11 04:53:28;;;;;;;4.80;1.65;;;;;;;13.84;72.71;100103.25;10423907;28;20050;-69
2023/05/11 04:58:29;;;;;;;6.60;1.55;;;;;;;13.98;72.42;100110.38;10405667;28;20102;-69
2023/05/11 05:03:31;;;;;;;6.10;1.30;;;;;;;13.98;72.38;100101.41;10420824;28;20049;-69
2023/05/11 05:08:32;;;;;;;4.38;1.63;;;;;;;14.06;72.18;100115.59;10419383;28;20055;-69
2023/05/11 05:13:33;;;;;;;6.32;1.58;;;;;;;14.14;71.61;100111.84;10416291;28;20115;-69
2023/05/11 05:18:35;;;;;;;3.58;1.50;;;;;;;14.08;71.68;100123.50;10421180;28;20126;-69
2023/05/11 05:23:37;;;;;;;2.85;1.33;;;;;;;13.97;72.09;100124.09;10421248;28;20045;-62
2023/05/11 05:28:38;;;;;;;4.45;1.80;;;;;;;14.12;71.81;100129.31;10423623;28;20520;-61
2023/05/11 05:33:40;;;;;;;3.58;1.48;;;;;;;14.14;71.60;100121.81;10417798;28;20484;-62
2023/05/11 05:38:41;;;;;;;7.30;1.73;;;;;;;14.25;71.19;100130.16;10419675;28;20111;-62
2023/05/11 05:43:42;;;;;;;3.60;1.15;;;;;;;14.28;70.90;100132.47;10421558;28;20081;-60
2023/05/11 05:48:44;;;;;;;4.18;1.10;;;;;;;14.33;70.49;100144.53;10400844;28;20150;-60
2023/05/11 05:53:45;;;;;;;3.53;1.25;;;;;;;14.42;70.33;100144.13;10420510;28;20076;-60
2023/05/11 05:58:47;;;;;;;2.97;2.45;;;;;;;14.57;69.88;100140.41;10418715;28;20049;-62
2023/05/11 06:03:50;;;;;;;5.53;1.88;;;;;;;14.79;69.27;100149.16;10416319;28;20120;-62
2023/05/11 06:08:52;;;;;;;4.90;1.63;;;;;;;14.91;69.07;100144.81;10414951;28;20051;-61
2023/05/11 06:13:54;;;;;;;3.40;1.63;;;;;;;15.00;68.92;100153.53;10413714;28;20152;-62
2023/05/11 06:18:55;;;;;;;4.18;1.88;;;;;;;15.26;68.35;100149.94;10420012;28;20676;-61
2023/05/11 06:23:57;;;;;;;3.30;2.13;;;;;;;15.44;68.21;100149.25;10417667;28;20048;-62
2023/05/11 06:28:58;;;;;;;3.65;2.28;;;;;;;15.63;67.98;100148.38;10418574;28;20072;-61
2023/05/11 06:33:59;;;;;;;2.20;2.00;;;;;;;15.86;67.68;100153.31;10420349;28;20073;-62
2023/05/11 06:39:01;;;;;;;6.53;2.50;;;;;;;16.01;67.25;100147.59;10417250;28;20054;-62
2023/05/11 06:44:02;;;;;;;2.63;2.35;;;;;;;16.10;67.21;100152.78;10416439;28;20060;-62
2023/05/11 06:49:03;;;;;;;5.28;2.85;;;;;;;16.30;66.66;100158.09;10421588;28;20038;-62
2023/05/11 06:54:06;;;;;;;4.75;3.08;;;;;;;16.46;66.64;100150.25;10425301;28;20056;-60
2023/05/11 06:59:07;;;;;;;5.20;2.67;;;;;;;16.65;66.32;100153.03;10417413;28;20102;-60
2023/05/11 07:04:08;;;;;;;8.43;4.95;;;;;;;16.89;66.04;100150.59;10444099;28;20072;-61
2023/05/11 07:09:10;;;;;;;7.13;5.80;;;;;;;17.01;66.08;100154.22;10440876;28;20076;-61
2023/05/11 07:14:11;;;;;;;9.50;5.35;;;;;;;17.18;65.43;100154.47;10426738;28;20037;-62
2023/05/11 07:19:13;;;;;;;9.38;5.75;;;;;;;17.37;65.18;100139.84;10428554;28;20079;-63
2023/05/11 07:24:14;;;;;;;8.27;6.07;;;;;;;17.47;64.62;100152.91;10434876;28;20045;-65
2023/05/11 07:29:16;;;;;;;8.48;5.93;;;;;;;17.73;64.20;100149.06;10430339;28;20060;-63
2023/05/11 07:34:17;;;;;;;7.70;5.60;;;;;;;17.99;63.77;100152.50;10431233;28;20049;-62
2023/05/11 07:39:19;;;;;;;8.90;5.70;;;;;;;18.09;63.37;100144.66;10430225;28;20119;-62
2023/05/11 07:44:20;;;;;;;6.72;5.15;;;;;;;18.38;62.76;100156.59;10432836;28;20167;-63
2023/05/11 07:49:21;;;;;;;8.02;6.18;;;;;;;18.37;62.54;100152.19;10430702;28;20127;-62
2023/05/11 07:54:40;;;;;;;7.95;5.70;;;;;;;18.50;62.38;100151.13;10425694;28;20508;-63
2023/05/11 07:59:41;;;;;;;7.18;5.40;;;;;;;18.60;62.15;100153.28;10430766;28;20076;-62
2023/05/11 08:04:42;;;;;;;8.85;6.47;;;;;;;18.64;61.89;100146.31;10431357;28;20128;-63
2023/05/11 08:09:44;;;;;;;7.10;5.20;;;;;;;18.56;61.77;100152.09;10430302;28;20045;-62
2023/05/11 08:14:45;;;;;;;14.07;6.45;;;;;;;18.69;61.41;100149.19;10427855;28;20187;-63
2023/05/11 08:19:47;;;;;;;6.97;4.32;;;;;;;18.56;61.47;100149.38;10425587;28;20068;-62
2023/05/11 08:24:50;;;;;;;8.68;4.95;;;;;;;18.53;60.93;100155.31;10420738;28;20116;-63
2023/05/11 08:29:51;;;;;;;7.93;5.18;;;;;;;18.24;61.24;100149.66;10405261;28;20080;-63
2023/05/11 08:34:53;;;;;;;9.77;5.13;;;;;;;18.31;61.34;100152.31;10422302;28;20041;-62
2023/05/11 08:39:54;;;;;;;6.38;4.72;;;;;;;18.38;61.04;100153.88;10428769;28;20382;-64
2023/05/11 08:44:56;;;;;;;6.40;4.70;;;;;;;18.50;60.66;100155.75;10420711;28;20137;-62
2023/05/11 08:49:58;;;;;;;6.10;4.50;;;;;;;18.33;60.96;100152.91;10425188;28;20080;-63
2023/05/11 08:54:59;;;;;;;6.10;4.50;;;;;;;18.56;60.46;100158.41;10421625;28;20159;-63
2023/05/11 09:00:02;;;;;;;3.83;3.40;;;;;;;18.66;59.98;100148.81;10422229;28;20496;-63
2023/05/11 09:05:05;;;;;;;5.13;3.88;;;;;;;18.82;59.94;100153.63;10403085;28;20064;-63
2023/05/11 09:10:07;;;;;;;6.75;3.10;;;;;;;18.99;59.16;100157.28;10426008;28;20048;-63
2023/05/11 09:15:09;;;;;;;5.88;3.42;;;;;;;19.07;59.01;100158.81;10423898;28;20075;-62
2023/05/11 09:20:11;;;;;;;3.45;3.15;;;;;;;19.05;58.84;100160.97;10423995;28;20076;-63
2023/05/11 09:25:14;;;;;;;4.07;3.40;;;;;;;19.06;58.59;100151.72;10405147;28;20160;-63
2023/05/11 09:30:17;;;;;;;28.33;19.20;;;;;;;19.08;58.60;100157.78;10419958;28;20139;-61
2023/05/11 09:35:31;;;;;;;3.97;3.63;;;;;;;19.34;58.18;100155.63;10423536;28;20046;-62
2023/05/11 09:40:37;;;;;;;6.50;4.72;;;;;;;19.24;58.34;100160.84;10419360;28;20463;-62
2023/05/11 09:45:42;;;;;;;7.45;5.40;;;;;;;19.26;58.48;100153.28;10419223;28;20065;-63
2023/05/11 09:50:44;;;;;;;7.78;4.43;;;;;;;19.35;58.38;100154.53;10418951;28;20064;-62
2023/05/11 09:55:53;;;;;;;7.70;4.97;;;;;;;19.42;57.65;100150.63;10381517;28;20081;-63
2023/05/11 10:00:54;;;;;;;7.82;4.18;;;;;;;19.23;58.03;100154.56;10377779;28;20045;-62
2023/05/11 10:05:58;;;;;;;4.57;3.53;;;;;;;19.33;57.66;100151.22;10362080;28;20077;-63
2023/05/11 10:11:01;;;;;;;4.95;3.20;;;;;;;19.36;58.19;100148.03;10362179;28;20076;-62
2023/05/11 10:16:04;;;;;;;3.38;3.08;;;;;;;19.42;58.04;100147.06;10383843;28;20072;-62
2023/05/11 10:21:06;;;;;;;4.80;2.83;;;;;;;19.67;57.48;100144.06;10374789;28;20065;-62
2023/05/11 10:26:09;;;;;;;6.03;4.68;;;;;;;19.88;57.25;100142.59;10368952;28;20077;-62
2023/05/11 10:31:11;;;;;;;5.45;3.28;;;;;;;20.05;57.15;100137.22;10375729;28;20050;-62
2023/05/11 10:36:13;;;;;;;6.20;3.63;;;;;;;20.52;55.98;100130.69;10380385;28;20117;-62
2023/05/11 10:41:25;;;;;;;4.20;3.72;;;;;;;20.71;55.58;100131.28;10378222;28;20140;-63
2023/05/11 10:47:00;;;;;;;5.65;3.55;;;;;;;20.75;55.33;100135.16;10375848;28;20578;-62
2023/05/11 10:52:27;;;;;;;4.88;3.67;;;;;;;20.27;55.77;100131.88;10375067;28;20052;-63
2023/05/11 10:57:52;;;;;;;5.93;4.25;;;;;;;20.27;55.31;100131.88;10417588;28;20049;-62
2023/05/11 11:02:54;;;;;;;5.30;3.85;;;;;;;20.34;55.15;100129.81;10416601;28;20376;-62
2023/05/11 11:08:02;;;;;;;4.82;4.32;;;;;;;20.48;54.57;100119.41;10420207;28;20460;-62
2023/05/11 11:13:11;;;;;;;4.28;3.13;;;;;;;20.68;54.51;100118.94;10416074;28;20771;-63
2023/05/11 11:18:27;;;;;;;3.65;3.35;;;;;;;20.77;54.36;100124.81;10417384;28;20041;-62
2023/05/11 11:23:43;;;;;;;6.97;3.30;;;;;;;20.75;53.82;100126.97;10398277;28;20049;-62
2023/05/11 11:28:53;;;;;;;6.27;4.27;;;;;;;20.84;54.05;100122.75;10411516;28;20137;-61
2023/05/11 11:33:57;;;;;;;7.45;5.45;;;;;;;20.90;53.77;100124.47;10409304;28;20053;-62
2023/05/11 11:39:00;;;;;;;7.55;5.47;;;;;;;20.88;54.41;100121.16;10411027;28;20060;-63
2023/05/11 11:44:03;;;;;;;8.07;5.50;;;;;;;20.86;54.11;100123.31;10421008;28;20063;-61
2023/05/11 11:49:08;;;;;;;6.80;5.13;;;;;;;20.60;54.75;100112.00;10420408;28;20579;-62
2023/05/11 11:54:10;;;;;;;8.23;4.60;;;;;;;20.54;55.50;100120.34;10426362;28;20041;-62
2023/05/11 11:59:12;;;;;;;5.40;4.43;;;;;;;20.46;55.50;100118.00;10419962;28;20144;-62
2023/05/11 12:04:38;;;;;;;6.95;3.90;;;;;;;20.17;55.95;100116.13;10421610;28;20037;-62
2023/05/11 12:09:39;;;;;;;5.93;5.05;;;;;;;19.89;56.63;100127.91;10427251;28;20073;-64
2023/05/11 12:14:47;;;;;;;9.05;6.18;;;;;;;19.31;57.97;100129.69;10420774;28;20055;-64
2023/05/11 12:19:49;;;;;;;12.30;6.22;;;;;;;17.89;61.90;100134.03;10405528;28;20064;-64
2023/05/11 12:24:54;;;;;;;7.18;6.13;;;;;;;16.86;64.77;100138.25;10418309;28;20545;-65
2023/05/11 12:29:57;;;;;;;10.75;7.45;;;;;;;16.43;66.03;100134.41;10416520;28;20503;-63
2023/05/11 12:35:03;;;;;;;8.25;7.00;;;;;;;16.23;66.93;100128.28;10402832;28;20111;-65
2023/05/11 12:40:09;;;;;;;9.77;7.60;;;;;;;16.18;67.86;100128.13;10421393;28;20042;-62
2023/05/11 12:45:11;;;;;;;11.18;8.75;;;;;;;16.11;68.55;100132.75;10422682;28;20140;-62
2023/05/11 12:50:13;;;;;;;12.27;8.23;;;;;;;16.30;68.84;100130.97;10422033;28;20045;-64
2023/05/11 12:55:26;;;;;;;12.48;9.20;;;;;;;16.30;69.86;100126.38;10424118;28;20148;-64
2023/05/11 13:00:27;;;;;;;9.63;7.80;;;;;;;16.36;70.47;100130.09;10419527;28;20053;-64
2023/05/11 13:05:29;;;;;;;11.63;7.85;;;;;;;16.42;70.68;100119.19;10421402;28;20076;-64
2023/05/11 13:10:31;;;;;;;11.75;8.73;;;;;;;16.45;71.08;100120.63;10416934;28;20538;-64
2023/05/11 13:15:32;;;;;;;11.43;8.80;;;;;;;16.49;71.78;100113.72;10420710;28;20057;-64
2023/05/11 13:20:34;;;;;;;11.90;8.43;;;;;;;16.57;72.07;100109.91;10417861;28;20485;-64
2023/05/11 13:25:44;;;;;;;9.25;6.60;;;;;;;16.58;72.33;100106.13;10421991;28;20730;-64
2023/05/11 13:30:47;;;;;;;8.65;5.05;;;;;;;16.47;72.53;100102.25;10415267;28;20061;-65
2023/05/11 13:35:48;;;;;;;6.35;3.60;;;;;;;16.50;71.82;100103.69;10425844;28;20048;-65
2023/05/11 13:40:50;;;;;;;5.40;4.85;;;;;;;16.53;71.87;100105.94;10421440;28;20085;-67
2023/05/11 13:45:51;;;;;;;5.10;3.10;;;;;;;16.52;71.32;100107.84;10426640;28;20778;-67
2023/05/11 13:50:52;;;;;;;3.38;2.05;;;;;;;16.21;71.66;100104.13;10420398;28;20068;-66
2023/05/11 13:55:54;;;;;;;3.40;2.63;;;;;;;16.14;71.68;100102.50;10383136;28;20065;-65
2023/05/11 14:00:55;;;;;;;5.50;3.22;;;;;;;16.18;71.82;100095.56;10374932;28;20042;-66
2023/05/11 14:06:08;;;;;;;5.78;3.97;;;;;;;16.12;72.13;100102.69;10378553;28;20128;-60
2023/05/11 14:11:10;;;;;;;4.28;3.67;;;;;;;16.16;71.62;100084.94;10378031;28;20084;-62
2023/05/11 14:16:11;;;;;;;4.15;2.25;;;;;;;16.07;71.65;100094.38;10376006;28;20038;-62
2023/05/11 14:21:13;;;;;;;4.90;3.08;;;;;;;15.92;71.77;100088.44;10384442;28;20046;-62
2023/05/11 14:26:15;;;;;;;3.70;3.28;;;;;;;15.99;71.91;100087.34;10393835;28;20096;-64
2023/05/11 14:31:16;;;;;;;5.50;3.97;;;;;;;16.04;71.94;100089.41;10392208;28;20053;-62
2023/05/11 14:36:18;;;;;;;6.35;4.30;;;;;;;16.03;72.29;100093.16;10388965;28;20053;-61
2023/05/11 14:41:20;;;;;;;5.65;4.35;;;;;;;15.91;72.41;100087.59;10384571;28;20100;-61
2023/05/11 14:46:22;;;;;;;6.32;4.68;;;;;;;15.90;72.53;100090.56;10386279;28;20853;-60
2023/05/11 14:51:26;;;;;;;6.63;4.25;;;;;;;15.78;72.71;100085.81;10380195;28;20069;-60
2023/05/11 14:56:28;;;;;;;5.07;4.07;;;;;;;15.76;72.17;100084.38;10400658;28;20098;-60
2023/05/11 15:01:29;;;;;;;4.32;3.58;;;;;;;15.89;72.17;100080.75;10417927;28;20558;-63
2023/05/11 15:06:31;;;;;;;4.97;3.35;;;;;;;16.00;71.17;100083.59;10416787;28;20053;-61
2023/05/11 15:11:32;;;;;;;5.65;4.50;;;;;;;16.08;71.54;100081.69;10408524;28;20080;-61
2023/05/11 15:16:34;;;;;;;7.10;4.63;;;;;;;16.15;71.81;100077.88;10417734;28;20048;-62
2023/05/11 15:21:35;;;;;;;6.72;4.85;;;;;;;16.25;72.12;100075.50;10418067;28;20948;-62
2023/05/11 15:26:37;;;;;;;7.45;4.95;;;;;;;16.29;72.65;100078.59;10425879;28;20132;-61
2023/05/11 15:31:38;;;;;;;8.65;4.78;;;;;;;16.40;72.81;100082.47;10424390;28;20052;-56
2023/05/11 15:36:40;;;;;;;6.93;5.63;;;;;;;16.50;72.50;100076.56;10424616;28;20064;-62
2023/05/11 15:41:42;;;;;;;8.77;5.30;;;;;;;16.56;72.01;100073.78;10427052;28;20049;-61
2023/05/11 15:46:43;;;;;;;5.78;4.45;;;;;;;16.51;72.06;100072.78;10421717;28;20677;-60
2023/05/11 15:51:45;;;;;;;5.25;3.78;;;;;;;16.49;72.06;100078.44;10421187;28;20079;-63
2023/05/11 15:56:46;;;;;;;8.50;4.65;;;;;;;16.50;71.83;100084.69;10425556;28;20065;-61
2023/05/11 16:01:47;;;;;;;6.63;4.78;;;;;;;16.42;72.04;100085.78;10423231;28;20449;-60
2023/05/11 16:06:49;;;;;;;6.82;4.03;;;;;;;16.25;72.50;100080.06;10429288;28;20147;-63
2023/05/11 16:11:50;;;;;;;6.80;4.57;;;;;;;16.39;72.18;100078.09;10434440;28;20053;-63
2023/05/11 16:16:52;;;;;;;9.10;5.13;;;;;;;16.58;72.05;100082.53;10435105;28;20063;-62
2023/05/11 16:21:53;;;;;;;8.63;5.20;;;;;;;16.69;71.79;100074.72;10432269;28;20052;-63
2023/05/11 16:26:55;;;;;;;8.20;5.10;;;;;;;16.72;71.97;100072.38;10416803;28;20041;-61
2023/05/11 16:31:56;;;;;;;9.05;5.95;;;;;;;16.72;72.47;100069.66;10429211;28;20480;-62
2023/05/11 16:36:58;;;;;;;8.35;6.18;;;;;;;16.76;72.49;100070.03;10427096;28;20049;-62
2023/05/11 16:41:59;;;;;;;7.45;5.55;;;;;;;16.74;72.67;100067.56;10404885;28;20049;-62
2023/05/11 16:47:01;;;;;;;7.32;4.47;;;;;;;16.66;73.03;100074.09;10420065;28;20076;-60
2023/05/11 16:52:03;;;;;;;7.10;4.90;;;;;;;16.65;73.16;100066.19;10421693;28;20049;-62
2023/05/11 16:57:04;;;;;;;9.88;5.50;;;;;;;16.68;73.29;100060.31;10426685;28;20068;-61
2023/05/11 17:02:07;;;;;;;6.40;5.32;;;;;;;16.60;73.26;100066.84;10418506;28;20049;-61
2023/05/11 17:07:10;;;;;;;7.05;5.82;;;;;;;16.44;73.35;100075.56;10424563;28;20139;-61
2023/05/11 17:12:11;;;;;;;6.68;5.47;;;;;;;16.43;73.49;100068.47;10420492;28;20119;-61
2023/05/11 17:17:13;;;;;;;7.30;5.68;;;;;;;16.46;73.44;100074.28;10426141;28;20491;-60
2023/05/11 17:22:14;;;;;;;8.77;6.25;;;;;;;16.40;73.70;100077.06;10421258;28;20072;-60
2023/05/11 17:27:15;;;;;;;17.00;7.70;;;;;;;16.48;73.58;100079.47;10421632;28;20081;-60
2023/05/11 17:32:17;;;;;;;11.73;7.72;;;;;;;16.41;73.86;100079.56;10416979;28;20041;-60
2023/05/11 17:37:19;;;;;;;7.75;5.00;;;;;;;16.44;73.98;100075.56;10430689;28;20045;-60
2023/05/11 17:42:33;;;;;;;4.18;3.15;;;;;;;16.42;73.94;100081.19;10431139;28;20114;-60
2023/05/11 17:47:34;;;;;;;3.25;2.05;;;;;;;16.33;74.33;100087.97;10428746;28;20049;-62
2023/05/11 17:52:35;;;;;;;1.83;1.50;;;;;;;16.17;74.25;100085.75;10411321;28;20148;-61
2023/05/11 17:57:37;;;;;;;2.35;1.38;;;;;;;16.06;74.09;100085.44;10416721;28;20048;-62
2023/05/11 18:02:38;;;;;;;2.50;1.40;;;;;;;15.95;74.12;100086.09;10423904;28;20128;-60
2023/05/11 18:07:40;;;;;;;3.55;1.42;;;;;;;15.70;74.70;100082.47;10417747;28;20055;-61
2023/05/11 18:12:41;;;;;;;4.28;2.50;;;;;;;15.44;75.13;100082.41;10420533;28;20099;-60
2023/05/11 18:17:43;;;;;;;3.75;1.38;;;;;;;15.34;75.05;100087.41;10417616;28;20455;-62
2023/05/11 18:22:44;;;;;;;1.88;1.42;;;;;;;15.07;75.46;100094.81;10421606;28;20068;-59
2023/05/11 18:27:46;;;;;;;2.55;1.95;;;;;;;14.91;75.69;100095.22;10418637;28;20136;-59
2023/05/11 18:32:47;;;;;;;3.58;1.40;;;;;;;14.74;75.99;100089.44;10422043;28;20079;-62
2023/05/11 18:37:49;;;;;;;4.95;1.58;;;;;;;14.73;76.05;100093.16;10418276;28;20057;-61
2023/05/11 18:42:54;;;;;;;2.85;1.30;;;;;;;14.70;75.77;100089.03;10416709;28;20535;-61
2023/05/11 18:47:56;;;;;;;7.85;2.75;;;;;;;14.64;75.87;100095.28;10422141;28;20107;-62
2023/05/11 18:52:57;;;;;;;4.05;2.10;;;;;;;14.66;75.75;100095.91;10422228;28;20388;-61
2023/05/11 18:58:00;;;;;;;5.25;1.80;;;;;;;14.82;75.30;100100.03;10418918;28;20050;-62
2023/05/11 19:03:01;;;;;;;5.03;2.22;;;;;;;14.76;75.69;100100.88;10415049;28;20046;-59
2023/05/11 19:08:03;;;;;;;3.20;1.98;;;;;;;14.76;75.56;100109.00;10417684;28;20049;-60
2023/05/11 19:13:06;;;;;;;5.75;2.00;;;;;;;14.53;76.35;100109.38;10440772;28;20056;-59
2023/05/11 19:18:07;;;;;;;4.38;1.98;;;;;;;14.37;76.74;100113.34;10436374;28;20553;-60
2023/05/11 19:23:09;;;;;;;3.60;1.85;;;;;;;14.48;76.28;100118.13;10440063;28;20053;-61
2023/05/11 19:28:10;;;;;;;5.32;2.13;;;;;;;14.68;75.83;100121.69;10438420;28;20060;-62
2023/05/11 19:33:12;;;;;;;5.13;2.10;;;;;;;14.66;75.89;100129.19;10440035;28;20053;-59
2023/05/11 19:38:14;;;;;;;6.63;2.80;;;;;;;14.59;76.24;100131.06;10438191;28;20125;-60
2023/05/11 19:43:15;;;;;;;6.57;2.63;;;;;;;14.44;77.05;100125.81;10441488;28;20054;-61
2023/05/11 19:48:16;;;;;;;6.65;3.22;;;;;;;14.42;77.22;100127.91;10414012;28;20058;-60
2023/05/11 19:53:18;;;;;;;5.75;3.00;;;;;;;14.44;77.11;100123.13;10427832;28;20080;-61
2023/05/11 19:58:19;;;;;;;6.32;3.03;;;;;;;14.39;77.33;100130.19;10426545;28;20049;-60
2023/05/11 20:03:21;;;;;;;6.07;2.97;;;;;;;14.54;77.03;100128.13;10421444;28;20050;-59
2023/05/11 20:08:22;;;;;;;5.45;2.55;;;;;;;14.70;76.42;100123.38;10416606;28;20064;-62
2023/05/11 20:13:24;;;;;;;5.20;2.92;;;;;;;14.80;76.37;100132.72;10446724;28;20523;-60
2023/05/11 20:18:25;;;;;;;3.58;2.40;;;;;;;14.76;76.56;100142.28;10427787;28;20049;-60
2023/05/11 20:23:27;;;;;;;5.30;2.90;;;;;;;14.80;76.47;100137.31;10431982;28;20271;-60
2023/05/11 20:28:28;;;;;;;5.47;3.45;;;;;;;14.77;76.56;100133.16;10416101;28;20049;-60
2023/05/11 20:33:30;;;;;;;7.40;3.35;;;;;;;14.62;77.07;100129.81;10431365;28;20080;-61
2023/05/11 20:38:34;;;;;;;8.18;3.38;;;;;;;14.67;77.08;100138.97;10416487;28;20100;-61
2023/05/11 20:43:35;;;;;;;6.53;2.95;;;;;;;14.65;77.26;100132.09;10421428;28;20095;-62
2023/05/11 20:48:37;;;;;;;6.78;3.45;;;;;;;14.37;78.07;100124.16;10420974;28;20072;-60
2023/05/11 20:53:42;;;;;;;9.07;4.32;;;;;;;14.31;78.41;100117.69;10421154;28;20512;-60
2023/05/11 20:58:46;;;;;;;12.52;3.70;;;;;;;14.13;79.11;100117.47;10421033;28;20668;-62
2023/05/11 21:03:47;;;;;;;7.25;3.17;;;;;;;13.97;79.39;100108.69;10419619;28;20115;-60
2023/05/11 21:08:49;;;;;;;10.82;3.47;;;;;;;14.00;79.35;100104.75;10425125;28;20136;-60
2023/05/11 21:13:51;;;;;;;7.85;3.38;;;;;;;14.01;79.56;100107.25;10421167;28;20065;-58
2023/05/11 21:18:53;;;;;;;7.82;3.33;;;;;;;14.16;79.15;100100.81;10420677;28;20561;-60
2023/05/11 21:23:54;;;;;;;10.73;3.03;;;;;;;14.22;79.02;100102.72;10420564;28;20050;-59
2023/05/11 21:28:56;;;;;;;10.52;3.45;;;;;;;14.28;78.86;100099.19;10404809;28;20219;-60
2023/05/11 21:33:57;;;;;;;10.35;4.32;;;;;;;14.32;78.65;100095.03;10419434;28;20103;-59
2023/05/11 21:38:59;;;;;;;7.57;3.50;;;;;;;14.13;79.40;100095.84;10422922;28;20099;-59
2023/05/11 21:44:00;;;;;;;9.60;3.80;;;;;;;14.17;79.36;100089.81;10420217;28;20053;-60
2023/05/11 21:49:02;;;;;;;9.38;3.42;;;;;;;14.29;79.01;100087.31;10420970;28;20061;-60
2023/05/11 21:54:03;;;;;;;10.50;4.43;;;;;;;14.32;79.15;100091.50;10417222;28;20072;-60
2023/05/11 21:59:04;;;;;;;12.43;4.60;;;;;;;14.28;79.50;100088.38;10415350;28;20665;-61
2023/05/11 22:04:06;;;;;;;10.60;4.95;;;;;;;14.26;79.48;100085.88;10401931;28;20103;-62
2023/05/11 22:09:08;;;;;;;10.77;4.20;;;;;;;14.35;79.48;100096.47;10419694;28;20128;-58
2023/05/11 22:14:09;;;;;;;8.18;5.05;;;;;;;14.32;79.91;100088.81;10420927;28;20076;-59
2023/05/11 22:19:12;;;;;;;11.80;5.50;;;;;;;14.27;79.80;100086.69;10420903;28;20137;-59
2023/05/11 22:24:13;;;;;;;15.95;5.90;;;;;;;14.45;79.51;100086.94;10418677;28;20121;-58
2023/05/11 22:29:15;;;;;;;15.82;6.68;;;;;;;14.56;79.22;100081.94;10420049;28;20080;-60
2023/05/11 22:34:18;;;;;;;16.88;6.82;;;;;;;14.52;79.30;100078.81;10421818;28;20561;-60
2023/05/11 22:39:19;;;;;;;19.58;7.03;;;;;;;14.59;79.49;100089.66;10414528;28;20136;-59
2023/05/11 22:44:21;;;;;;;18.45;7.07;;;;;;;14.40;80.19;100086.72;10413215;28;20052;-61
2023/05/11 22:49:22;;;;;;;18.50;6.43;;;;;;;14.37;80.37;100089.81;10418043;28;20136;-59
2023/05/11 22:54:26;;;;;;;22.10;6.85;;;;;;;14.55;79.87;100088.38;10422168;28;20459;-60
2023/05/11 22:59:28;;;;;;;16.33;6.57;;;;;;;14.62;79.66;100097.34;10412179;28;20454;-60
2023/05/11 23:04:31;;;;;;;23.02;7.60;;;;;;;14.33;80.54;100093.16;10418041;28;20081;-61
2023/05/11 23:09:33;;;;;;;20.52;6.57;;;;;;;14.26;80.79;100083.16;10410022;28;20481;-59
2023/05/11 23:14:35;;;;;;;19.83;6.53;;;;;;;14.46;80.36;100082.34;10414181;28;20080;-59